Time,TemperatureF,DewpointF,PressureIn,WindDirection,WindDirectionDegrees,WindSpeedMPH,WindSpeedGustMPH,Humidity,HourlyPrecipIn,Conditions,Clouds,dailyrainin,SoftwareType,DateUTC
2013-03-27 00:02:00,31.0,27.0,30.24,East,89,0.0,0.0,84,0.00,,,0.00,,2013-03-27 05:02:00,
2013-03-27 00:12:00,31.0,27.0,30.24,East,89,0.0,0.0,84,0.00,,,0.00,,2013-03-27 05:12:00,
2013-03-27 00:23:00,31.0,27.0,30.24,SE,131,3.0,6.0,85,0.00,,,0.00,,2013-03-27 05:23:00,
2013-03-27 00:32:00,31.0,27.0,30.24,SE,129,5.0,5.0,86,0.00,,,0.00,,2013-03-27 05:32:00,
2013-03-27 00:42:00,31.0,27.0,30.24,SE,129,5.0,5.0,86,0.00,,,0.00,,2013-03-27 05:42:00,
2013-03-27 00:52:00,30.0,27.0,30.24,SE,127,3.0,5.0,87,0.00,,,0.00,,2013-03-27 05:52:00,
2013-03-27 01:02:00,30.0,27.0,30.24,ESE,119,0.0,0.0,88,0.00,,,0.00,,2013-03-27 06:02:00,
2013-03-27 01:12:00,30.0,27.0,30.24,ESE,119,0.0,0.0,88,0.00,,,0.00,,2013-03-27 06:12:00,
2013-03-27 01:22:00,30.0,27.0,30.24,SSE,152,0.0,6.0,88,0.00,,,0.00,,2013-03-27 06:22:00,
2013-03-27 01:32:00,29.0,26.0,30.24,SE,139,3.0,6.0,89,0.00,,,0.00,,2013-03-27 06:32:00,
2013-03-27 01:42:00,29.0,26.0,30.24,SE,139,3.0,6.0,89,0.00,,,0.00,,2013-03-27 06:42:00,
2013-03-27 01:53:00,29.0,26.0,30.24,SE,139,5.0,7.0,90,0.00,,,0.00,,2013-03-27 06:53:00,
2013-03-27 02:02:00,29.0,26.0,30.24,SE,134,2.0,7.0,90,0.00,,,0.00,,2013-03-27 07:02:00,
2013-03-27 02:12:00,29.0,26.0,30.24,SE,134,2.0,7.0,90,0.00,,,0.00,,2013-03-27 07:12:00,
2013-03-27 02:22:00,29.0,26.0,30.24,ESE,120,0.0,0.0,89,0.00,,,0.00,,2013-03-27 07:22:00,
2013-03-27 02:32:00,29.0,26.0,30.24,ESE,120,0.0,0.0,89,0.00,,,0.00,,2013-03-27 07:32:00,
2013-03-27 02:42:00,29.0,26.0,30.24,ESE,120,0.0,0.0,89,0.00,,,0.00,,2013-03-27 07:42:00,
2013-03-27 02:53:00,29.0,26.0,30.24,SSE,162,1.0,2.0,90,0.00,,,0.00,,2013-03-27 07:53:00,
2013-03-27 03:02:00,29.0,26.0,30.24,SSE,162,0.0,0.0,89,0.00,,,0.00,,2013-03-27 08:02:00,
2013-03-27 03:12:00,29.0,26.0,30.24,SSE,162,0.0,0.0,89,0.00,,,0.00,,2013-03-27 08:12:00,
2013-03-27 03:22:00,29.0,26.0,30.23,SSE,152,3.0,6.0,89,0.00,,,0.00,,2013-03-27 08:22:00,
2013-03-27 03:32:00,29.0,26.0,30.24,SE,143,0.0,0.0,88,0.00,,,0.00,,2013-03-27 08:32:00,
2013-03-27 03:43:00,29.0,26.0,30.24,SE,143,0.0,0.0,88,0.00,,,0.00,,2013-03-27 08:43:00,
2013-03-27 03:52:00,29.0,26.0,30.23,SSE,168,0.0,0.0,89,0.00,,,0.00,,2013-03-27 08:52:00,
2013-03-27 04:01:00,29.0,26.0,30.23,SSE,168,0.0,0.0,89,0.00,,,0.00,,2013-03-27 09:01:00,
2013-03-27 04:12:00,29.0,26.0,30.23,SSE,168,0.0,0.0,89,0.00,,,0.00,,2013-03-27 09:12:00,
2013-03-27 04:22:00,28.0,25.0,30.23,SSE,168,0.0,0.0,90,0.00,,,0.00,,2013-03-27 09:22:00,
2013-03-27 04:32:00,28.0,26.0,30.23,ESE,112,1.0,0.0,91,0.00,,,0.00,,2013-03-27 09:32:00,
2013-03-27 04:42:00,28.0,26.0,30.23,ESE,112,1.0,0.0,91,0.00,,,0.00,,2013-03-27 09:42:00,
2013-03-27 04:52:00,27.0,25.0,30.22,ESE,112,0.0,0.0,93,0.00,,,0.00,,2013-03-27 09:52:00,
2013-03-27 05:02:00,27.0,26.0,30.23,ESE,112,0.0,0.0,94,0.00,,,0.00,,2013-03-27 10:02:00,
2013-03-27 05:12:00,27.0,26.0,30.23,ESE,112,0.0,0.0,94,0.00,,,0.00,,2013-03-27 10:12:00,
2013-03-27 05:22:00,27.0,26.0,30.23,ESE,119,0.0,0.0,95,0.00,,,0.00,,2013-03-27 10:22:00,
2013-03-27 05:32:00,27.0,26.0,30.23,East,90,0.0,0.0,94,0.00,,,0.00,,2013-03-27 10:32:00,
2013-03-27 05:42:00,27.0,26.0,30.23,East,90,0.0,0.0,94,0.00,,,0.00,,2013-03-27 10:42:00,
2013-03-27 05:53:00,27.0,26.0,30.22,ENE,62,0.0,0.0,94,0.00,,,0.00,,2013-03-27 10:53:00,
2013-03-27 06:02:00,27.0,26.0,30.22,ENE,62,0.0,0.0,94,0.00,,,0.00,,2013-03-27 11:02:00,
2013-03-27 06:12:00,27.0,26.0,30.22,ENE,62,0.0,0.0,94,0.00,,,0.00,,2013-03-27 11:12:00,
2013-03-27 06:22:00,26.0,25.0,30.23,ENE,62,0.0,0.0,96,0.00,,,0.00,,2013-03-27 11:22:00,
2013-03-27 06:32:00,25.0,24.0,30.22,ENE,62,0.0,0.0,97,0.00,,,0.00,,2013-03-27 11:32:00,
2013-03-27 06:42:00,25.0,24.0,30.22,ENE,62,0.0,0.0,97,0.00,,,0.00,,2013-03-27 11:42:00,
2013-03-27 06:52:00,26.0,25.0,30.22,ESE,123,0.0,0.0,97,0.00,,,0.00,,2013-03-27 11:52:00,
2013-03-27 07:02:00,26.0,25.0,30.23,ESE,123,0.0,0.0,96,0.00,,,0.00,,2013-03-27 12:02:00,
2013-03-27 07:12:00,26.0,25.0,30.23,ESE,123,0.0,0.0,96,0.00,,,0.00,,2013-03-27 12:12:00,
2013-03-27 07:22:00,25.0,25.0,30.23,SE,138,3.0,6.0,98,0.00,,,0.00,,2013-03-27 12:22:00,
2013-03-27 07:32:00,25.0,25.0,30.23,SE,138,2.0,5.0,98,0.00,,,0.00,,2013-03-27 12:32:00,
2013-03-27 07:42:00,25.0,25.0,30.23,SE,138,2.0,5.0,98,0.00,,,0.00,,2013-03-27 12:42:00,
2013-03-27 07:52:00,25.0,25.0,30.23,SE,127,3.0,5.0,98,0.00,,,0.00,,2013-03-27 12:52:00,
2013-03-27 08:02:00,25.0,25.0,30.24,ESE,120,0.0,0.0,98,0.00,,,0.00,,2013-03-27 13:02:00,
2013-03-27 08:12:00,25.0,25.0,30.24,ESE,120,0.0,0.0,98,0.00,,,0.00,,2013-03-27 13:12:00,
2013-03-27 08:22:00,26.0,26.0,30.24,SE,128,3.0,5.0,98,0.00,,,0.00,,2013-03-27 13:22:00,
2013-03-27 08:32:00,26.0,26.0,30.25,ESE,123,2.0,2.0,98,0.00,,,0.00,,2013-03-27 13:32:00,
2013-03-27 08:42:00,26.0,26.0,30.25,ESE,123,2.0,2.0,98,0.00,,,0.00,,2013-03-27 13:42:00,
2013-03-27 08:53:00,28.0,27.0,30.25,SE,132,1.0,3.0,97,0.00,,,0.00,,2013-03-27 13:53:00,
2013-03-27 09:02:00,29.0,28.0,30.25,SE,133,3.0,6.0,95,0.00,,,0.00,,2013-03-27 14:02:00,
2013-03-27 09:12:00,29.0,28.0,30.25,SE,133,3.0,6.0,95,0.00,,,0.00,,2013-03-27 14:12:00,
2013-03-27 09:22:00,30.0,27.0,30.25,SSE,156,3.0,5.0,90,0.00,,,0.00,,2013-03-27 14:22:00,
2013-03-27 09:32:00,31.0,28.0,30.25,SE,145,2.0,7.0,88,0.00,,,0.00,,2013-03-27 14:32:00,
2013-03-27 09:42:00,31.0,28.0,30.25,SE,145,2.0,7.0,88,0.00,,,0.00,,2013-03-27 14:42:00,
2013-03-27 09:52:00,33.0,28.0,30.26,SE,146,5.0,12.0,81,0.00,,,0.00,,2013-03-27 14:52:00,
2013-03-27 10:02:00,33.0,27.0,30.26,South,176,6.0,10.0,79,0.00,,,0.00,,2013-03-27 15:02:00,
2013-03-27 10:12:00,33.0,27.0,30.26,South,176,6.0,10.0,79,0.00,,,0.00,,2013-03-27 15:12:00,
2013-03-27 10:22:00,34.0,28.0,30.25,SSE,149,7.0,12.0,78,0.00,,,0.00,,2013-03-27 15:22:00,
2013-03-27 10:33:00,35.0,29.0,30.25,SSE,153,5.0,9.0,78,0.00,,,0.00,,2013-03-27 15:33:00,
2013-03-27 10:42:00,35.0,29.0,30.25,SSE,153,5.0,9.0,78,0.00,,,0.00,,2013-03-27 15:42:00,
2013-03-27 10:52:00,36.0,29.0,30.26,SSE,152,3.0,8.0,77,0.00,,,0.00,,2013-03-27 15:52:00,
2013-03-27 11:02:00,35.0,28.0,30.25,SSE,161,9.0,13.0,75,0.00,,,0.00,,2013-03-27 16:02:00,
2013-03-27 11:12:00,35.0,28.0,30.25,SSE,161,9.0,13.0,75,0.00,,,0.00,,2013-03-27 16:12:00,
2013-03-27 11:22:00,36.0,28.0,30.25,SE,135,13.0,18.0,73,0.00,,,0.00,,2013-03-27 16:22:00,
2013-03-27 11:32:00,37.0,29.0,30.25,SE,142,8.0,12.0,74,0.00,,,0.00,,2013-03-27 16:32:00,
2013-03-27 11:42:00,37.0,29.0,30.25,SE,142,8.0,12.0,74,0.00,,,0.00,,2013-03-27 16:42:00,
2013-03-27 11:52:00,38.0,29.0,30.25,SE,128,10.0,12.0,71,0.00,,,0.00,,2013-03-27 16:52:00,
2013-03-27 12:02:00,38.0,30.0,30.25,SE,134,9.0,16.0,72,0.00,,,0.00,,2013-03-27 17:02:00,
2013-03-27 12:12:00,38.0,30.0,30.25,SE,134,9.0,16.0,72,0.00,,,0.00,,2013-03-27 17:12:00,
2013-03-27 12:22:00,39.0,29.0,30.24,SE,142,13.0,15.0,67,0.00,,,0.00,,2013-03-27 17:22:00,
2013-03-27 12:32:00,39.0,29.0,30.24,SE,142,12.0,13.0,66,0.00,,,0.00,,2013-03-27 17:32:00,
2013-03-27 12:44:00,39.0,29.0,30.24,SE,142,12.0,13.0,66,0.00,,,0.00,,2013-03-27 17:44:00,
2013-03-27 12:52:00,41.0,30.0,30.24,SSE,155,7.0,9.0,64,0.00,,,0.00,,2013-03-27 17:52:00,
2013-03-27 13:02:00,41.0,28.0,30.24,SE,134,12.0,17.0,60,0.00,,,0.00,,2013-03-27 18:02:00,
2013-03-27 13:12:00,41.0,28.0,30.24,SE,134,12.0,17.0,60,0.00,,,0.00,,2013-03-27 18:12:00,
2013-03-27 13:22:00,43.0,30.0,30.23,SSE,151,9.0,15.0,61,0.00,,,0.00,,2013-03-27 18:22:00,
2013-03-27 13:32:00,43.0,30.0,30.23,SSE,154,12.0,15.0,61,0.00,,,0.00,,2013-03-27 18:32:00,
2013-03-27 13:42:00,43.0,30.0,30.23,SSE,154,12.0,15.0,61,0.00,,,0.00,,2013-03-27 18:42:00,
2013-03-27 13:53:00,44.0,31.0,30.23,WNW,291,3.0,8.0,59,0.00,,,0.00,,2013-03-27 18:53:00,
2013-03-27 14:02:00,44.0,29.0,30.22,SE,134,12.0,14.0,55,0.00,,,0.00,,2013-03-27 19:02:00,
2013-03-27 14:12:00,44.0,29.0,30.22,SE,134,12.0,14.0,55,0.00,,,0.00,,2013-03-27 19:12:00,
2013-03-27 14:22:00,46.0,31.0,30.22,ESE,110,8.0,14.0,55,0.00,,,0.00,,2013-03-27 19:22:00,
2013-03-27 14:32:00,46.0,31.0,30.22,ESE,110,7.0,16.0,56,0.00,,,0.00,,2013-03-27 19:32:00,
2013-03-27 14:42:00,46.0,31.0,30.22,ESE,110,7.0,16.0,56,0.00,,,0.00,,2013-03-27 19:42:00,
2013-03-27 14:52:00,46.0,30.0,30.21,ESE,122,7.0,12.0,54,0.00,,,0.00,,2013-03-27 19:52:00,
2013-03-27 15:02:00,46.0,31.0,30.20,SE,135,10.0,10.0,55,0.00,,,0.00,,2013-03-27 20:02:00,
2013-03-27 15:12:00,46.0,31.0,30.20,SE,135,10.0,10.0,55,0.00,,,0.00,,2013-03-27 20:12:00,
2013-03-27 15:22:00,47.0,32.0,30.20,SE,136,7.0,10.0,55,0.00,,,0.00,,2013-03-27 20:22:00,
2013-03-27 15:32:00,47.0,31.0,30.20,ESE,120,12.0,14.0,53,0.00,,,0.00,,2013-03-27 20:32:00,
2013-03-27 15:42:00,47.0,31.0,30.20,ESE,120,12.0,14.0,53,0.00,,,0.00,,2013-03-27 20:42:00,
2013-03-27 15:52:00,47.0,31.0,30.19,SE,140,9.0,10.0,54,0.00,,,0.00,,2013-03-27 20:52:00,
2013-03-27 16:02:00,48.0,33.0,30.19,SE,142,6.0,12.0,55,0.00,,,0.00,,2013-03-27 21:02:00,
2013-03-27 16:12:00,48.0,33.0,30.19,SE,142,6.0,12.0,55,0.00,,,0.00,,2013-03-27 21:12:00,
2013-03-27 16:22:00,48.0,32.0,30.18,SE,141,6.0,9.0,54,0.00,,,0.00,,2013-03-27 21:22:00,
2013-03-27 16:32:00,48.0,32.0,30.18,ESE,122,10.0,16.0,53,0.00,,,0.00,,2013-03-27 21:32:00,
2013-03-27 16:43:00,48.0,32.0,30.18,ESE,122,10.0,16.0,53,0.00,,,0.00,,2013-03-27 21:43:00,
2013-03-27 16:52:00,49.0,33.0,30.18,SSE,150,8.0,13.0,53,0.00,,,0.00,,2013-03-27 21:52:00,
2013-03-27 17:03:00,50.0,34.0,30.18,SE,146,7.0,13.0,53,0.00,,,0.00,,2013-03-27 22:03:00,
2013-03-27 17:12:00,50.0,34.0,30.18,SE,146,7.0,13.0,53,0.00,,,0.00,,2013-03-27 22:12:00,
2013-03-27 17:23:00,49.0,33.0,30.18,SSE,154,6.0,13.0,54,0.00,,,0.00,,2013-03-27 22:23:00,
2013-03-27 17:33:00,49.0,33.0,30.18,SSE,156,7.0,10.0,54,0.00,,,0.00,,2013-03-27 22:33:00,
2013-03-27 17:42:00,49.0,33.0,30.18,SSE,156,7.0,10.0,54,0.00,,,0.00,,2013-03-27 22:42:00,
2013-03-27 17:52:00,48.0,33.0,30.19,SSE,160,7.0,9.0,55,0.00,,,0.00,,2013-03-27 22:52:00,
2013-03-27 18:02:00,49.0,33.0,30.19,SSE,151,6.0,13.0,54,0.00,,,0.00,,2013-03-27 23:02:00,
2013-03-27 18:12:00,49.0,33.0,30.19,SSE,151,6.0,13.0,54,0.00,,,0.00,,2013-03-27 23:12:00,
2013-03-27 18:22:00,49.0,33.0,30.19,ESE,104,7.0,12.0,53,0.00,,,0.00,,2013-03-27 23:22:00,
2013-03-27 18:32:00,49.0,33.0,30.19,SE,137,7.0,9.0,54,0.00,,,0.00,,2013-03-27 23:32:00,
2013-03-27 18:42:00,49.0,33.0,30.19,SE,137,7.0,9.0,54,0.00,,,0.00,,2013-03-27 23:42:00,
2013-03-27 18:52:00,49.0,34.0,30.19,SE,133,7.0,9.0,55,0.00,,,0.00,,2013-03-27 23:52:00,
2013-03-27 19:02:00,48.0,34.0,30.19,ESE,104,8.0,9.0,58,0.00,,,0.00,,2013-03-28 00:02:00,
2013-03-27 19:12:00,48.0,34.0,30.19,ESE,104,8.0,9.0,58,0.00,,,0.00,,2013-03-28 00:12:00,
2013-03-27 19:22:00,47.0,34.0,30.20,ESE,121,7.0,12.0,61,0.00,,,0.00,,2013-03-28 00:22:00,
2013-03-27 19:32:00,46.0,34.0,30.20,ESE,108,7.0,8.0,63,0.00,,,0.00,,2013-03-28 00:32:00,
2013-03-27 19:42:00,46.0,34.0,30.20,ESE,108,7.0,8.0,63,0.00,,,0.00,,2013-03-28 00:42:00,
2013-03-27 19:52:00,45.0,34.0,30.20,ESE,113,7.0,9.0,66,0.00,,,0.00,,2013-03-28 00:52:00,
2013-03-27 20:02:00,44.0,34.0,30.21,ESE,111,6.0,8.0,67,0.00,,,0.00,,2013-03-28 01:02:00,
2013-03-27 20:12:00,44.0,34.0,30.21,ESE,111,6.0,8.0,67,0.00,,,0.00,,2013-03-28 01:12:00,
2013-03-27 20:22:00,43.0,34.0,30.21,ESE,103,6.0,7.0,70,0.00,,,0.00,,2013-03-28 01:22:00,
2013-03-27 20:32:00,42.0,34.0,30.21,East,91,6.0,7.0,72,0.00,,,0.00,,2013-03-28 01:32:00,
2013-03-27 20:42:00,42.0,34.0,30.21,East,91,6.0,7.0,72,0.00,,,0.00,,2013-03-28 01:42:00,
2013-03-27 20:52:00,40.0,33.0,30.22,ESE,109,6.0,7.0,76,0.00,,,0.00,,2013-03-28 01:52:00,
2013-03-27 21:02:00,40.0,34.0,30.22,ESE,116,5.0,6.0,78,0.00,,,0.00,,2013-03-28 02:02:00,
2013-03-27 21:12:00,40.0,34.0,30.22,ESE,116,5.0,6.0,78,0.00,,,0.00,,2013-03-28 02:12:00,
2013-03-27 21:22:00,39.0,34.0,30.22,ESE,116,7.0,8.0,81,0.00,,,0.00,,2013-03-28 02:22:00,
2013-03-27 21:32:00,39.0,34.0,30.22,ESE,112,6.0,9.0,82,0.00,,,0.00,,2013-03-28 02:32:00,
2013-03-27 21:42:00,39.0,34.0,30.22,ESE,112,6.0,9.0,82,0.00,,,0.00,,2013-03-28 02:42:00,
2013-03-27 21:52:00,39.0,34.0,30.22,ESE,112,6.0,9.0,82,0.00,,,0.00,,2013-03-28 02:52:00,
2013-03-27 22:02:00,38.0,34.0,30.23,ESE,118,7.0,9.0,84,0.00,,,0.00,,2013-03-28 03:02:00,
2013-03-27 22:12:00,38.0,34.0,30.23,ESE,118,7.0,9.0,84,0.00,,,0.00,,2013-03-28 03:12:00,
2013-03-27 22:22:00,38.0,34.0,30.24,SE,129,6.0,7.0,84,0.00,,,0.00,,2013-03-28 03:22:00,
2013-03-27 22:33:00,38.0,33.0,30.24,SE,129,7.0,9.0,83,0.00,,,0.00,,2013-03-28 03:33:00,
2013-03-27 22:42:00,38.0,33.0,30.24,SE,129,7.0,9.0,83,0.00,,,0.00,,2013-03-28 03:42:00,
2013-03-27 22:53:00,37.0,32.0,30.24,SE,135,7.0,9.0,82,0.00,,,0.00,,2013-03-28 03:53:00,
2013-03-27 23:02:00,37.0,32.0,30.24,SE,126,8.0,9.0,82,0.00,,,0.00,,2013-03-28 04:02:00,
2013-03-27 23:12:00,37.0,32.0,30.24,SE,126,8.0,9.0,82,0.00,,,0.00,,2013-03-28 04:12:00,
2013-03-27 23:22:00,37.0,32.0,30.24,SE,129,7.0,8.0,82,0.00,,,0.00,,2013-03-28 04:22:00,
2013-03-27 23:32:00,37.0,32.0,30.23,SE,140,6.0,8.0,82,0.00,,,0.00,,2013-03-28 04:32:00,
2013-03-27 23:42:00,37.0,32.0,30.23,SE,140,6.0,8.0,82,0.00,,,0.00,,2013-03-28 04:42:00,
2013-03-27 23:52:00,36.0,31.0,30.24,SE,142,6.0,9.0,82,0.00,,,0.00,,2013-03-28 04:52:00,